createdAt,value
2019-04-05T00:01:56.010Z,56.78
2019-04-05T00:04:22.807Z,57.21
2019-04-05T00:06:49.517Z,57.54
2019-04-05T00:09:16.822Z,57.22
2019-04-05T00:11:43.429Z,56.69
2019-04-05T00:14:10.457Z,56.40
2019-04-05T00:16:37.212Z,56.37
2019-04-05T00:19:04.173Z,56.42
2019-04-05T00:21:31.063Z,56.15
2019-04-05T00:23:57.777Z,56.13
2019-04-05T00:26:24.577Z,55.94
2019-04-05T00:28:51.867Z,55.73
2019-04-05T00:31:19.218Z,55.57
2019-04-05T00:33:45.911Z,55.44
2019-04-05T00:36:12.717Z,54.97
2019-04-05T00:38:40.622Z,54.99
2019-04-05T00:41:07.202Z,55.03
2019-04-05T00:43:34.098Z,54.90
2019-04-05T00:46:00.975Z,55.52
2019-04-05T00:48:27.814Z,56.42
2019-04-05T00:50:54.453Z,57.00
2019-04-05T00:53:21.384Z,57.16
2019-04-05T00:55:48.014Z,57.39
2019-04-05T00:58:14.593Z,57.57
2019-04-05T01:00:41.187Z,57.38
2019-04-05T01:03:07.798Z,57.48
2019-04-05T01:05:34.687Z,57.42
2019-04-05T01:08:01.323Z,56.96
2019-04-05T01:10:28.439Z,56.94
2019-04-05T01:12:55.060Z,56.94
2019-04-05T01:15:21.735Z,56.81
2019-04-05T01:17:48.325Z,56.76
2019-04-05T01:20:15.168Z,56.95
2019-04-05T01:22:41.820Z,57.29
2019-04-05T01:25:08.744Z,57.14
2019-04-05T01:27:39.597Z,57.16
2019-04-05T01:30:07.821Z,57.28
2019-04-05T01:32:38.189Z,57.01
2019-04-05T01:35:04.791Z,56.96
2019-04-05T01:37:34.160Z,56.93
2019-04-05T01:40:03.856Z,56.65
2019-04-05T01:42:37.008Z,56.73
2019-04-05T01:45:06.041Z,56.85
2019-04-05T01:47:37.047Z,56.62
2019-04-05T01:50:07.359Z,56.31
2019-04-05T01:52:34.753Z,56.39
2019-04-05T01:55:06.166Z,56.56
2019-04-05T01:57:34.058Z,56.36
2019-04-05T02:00:00.880Z,56.32
2019-04-05T02:02:28.972Z,56.31
2019-04-05T02:04:58.765Z,55.93
2019-04-05T02:07:25.939Z,56.21
2019-04-05T02:09:52.545Z,56.58
2019-04-05T02:12:19.376Z,56.73
2019-04-05T02:14:51.196Z,56.59
2019-04-05T02:17:22.635Z,56.85
2019-04-05T02:19:51.540Z,56.96
2019-04-05T02:22:18.551Z,56.94
2019-04-05T02:24:46.179Z,57.08
2019-04-05T02:27:15.777Z,57.27
2019-04-05T02:29:45.430Z,57.24
2019-04-05T02:32:13.033Z,56.66
2019-04-05T02:34:44.800Z,56.60
2019-04-05T02:37:17.851Z,56.67
2019-04-05T02:39:47.241Z,57.18
2019-04-05T02:42:14.638Z,57.59
2019-04-05T02:44:41.869Z,57.41
2019-04-05T02:47:09.506Z,57.89
2019-04-05T02:49:40.702Z,57.36
2019-04-05T02:52:10.093Z,57.17
2019-04-05T02:54:39.714Z,57.28
2019-04-05T02:57:10.230Z,57.18
2019-04-05T02:59:38.028Z,57.24
2019-04-05T03:02:05.676Z,57.50
2019-04-05T03:04:33.527Z,57.53
2019-04-05T03:07:03.223Z,57.29
2019-04-05T03:09:30.807Z,57.12
2019-04-05T03:12:00.605Z,57.02
2019-04-05T03:14:29.325Z,56.69
2019-04-05T03:16:56.904Z,57.21
2019-04-05T03:19:28.100Z,57.83
2019-04-05T03:21:56.605Z,57.76
2019-04-05T03:27:09.189Z,57.84
2019-04-05T03:29:36.244Z,57.98
2019-04-05T03:32:02.872Z,57.65
2019-04-05T03:34:29.654Z,57.72
2019-04-05T03:36:56.259Z,58.00
2019-04-05T03:39:23.168Z,58.20
2019-04-05T03:41:50.059Z,58.48
2019-04-05T03:44:16.703Z,58.42
2019-04-05T03:46:56.158Z,58.37
2019-04-05T03:49:11.678Z,58.33
2019-04-05T03:51:38.643Z,58.11
2019-04-05T03:54:05.441Z,58.32
2019-04-05T03:56:33.321Z,58.58
2019-04-05T03:59:00.006Z,58.63
2019-04-05T04:01:26.626Z,58.65
2019-04-05T04:03:53.340Z,58.84
2019-04-05T04:06:20.171Z,58.09
2019-04-05T04:08:47.004Z,58.23
2019-04-05T04:11:14.367Z,58.78
2019-04-05T04:13:41.328Z,58.78
2019-04-05T04:16:07.924Z,58.71
2019-04-05T04:18:34.991Z,58.73
2019-04-05T04:21:01.574Z,58.26
2019-04-05T04:23:28.262Z,57.97
2019-04-05T04:25:54.958Z,58.78
2019-04-05T04:28:21.837Z,59.14
2019-04-05T04:30:48.820Z,59.31
2019-04-05T04:33:15.458Z,59.05
2019-04-05T04:35:42.331Z,58.55
2019-04-05T04:38:09.155Z,58.30
2019-04-05T04:40:35.785Z,58.19
2019-04-05T04:43:02.401Z,58.30
2019-04-05T04:45:30.393Z,58.88
2019-04-05T04:50:30.545Z,58.74
2019-04-05T04:52:57.402Z,58.76
2019-04-05T04:55:24.975Z,58.94
2019-04-05T04:57:51.919Z,58.49
2019-04-05T05:00:18.721Z,58.31
2019-04-05T05:02:45.331Z,58.27
2019-04-05T05:05:11.919Z,58.64
2019-04-05T05:07:38.787Z,58.52
2019-04-05T05:10:05.414Z,58.58
2019-04-05T05:12:32.269Z,58.01
2019-04-05T05:14:58.991Z,57.61
2019-04-05T05:17:37.421Z,58.23
2019-04-05T05:19:53.900Z,57.63
2019-04-05T05:22:20.738Z,57.04
2019-04-05T05:27:19.098Z,57.03
2019-04-05T05:29:45.985Z,58.08
2019-04-05T05:32:12.583Z,58.34
2019-04-05T05:34:39.272Z,57.98
2019-04-05T05:37:06.080Z,57.70
2019-04-05T05:39:33.026Z,57.85
2019-04-05T05:41:59.616Z,58.22
2019-04-05T05:44:26.203Z,57.80
2019-04-05T05:46:53.539Z,57.70
2019-04-05T05:49:21.457Z,57.60
2019-04-05T05:51:49.453Z,57.43
2019-04-05T05:54:16.896Z,57.76
2019-04-05T05:56:43.683Z,57.77
2019-04-05T05:59:11.383Z,57.12
2019-04-05T06:01:38.079Z,57.73
2019-04-05T06:04:05.763Z,57.29
2019-04-05T06:06:33.374Z,57.36
2019-04-05T06:09:00.972Z,57.23
2019-04-05T06:11:27.598Z,55.89
2019-04-05T06:13:54.407Z,55.42
2019-04-05T06:16:21.014Z,56.15
2019-04-05T06:18:48.687Z,55.67
2019-04-05T06:21:15.376Z,52.77
2019-04-05T06:23:42.303Z,52.57
2019-04-05T06:26:16.751Z,51.24
2019-04-05T06:28:43.459Z,50.60
2019-04-05T06:31:10.112Z,50.73
2019-04-05T06:33:36.849Z,50.47
2019-04-05T06:36:03.645Z,50.31
2019-04-05T06:38:30.254Z,49.12
2019-04-05T06:40:56.896Z,48.72
2019-04-05T06:43:23.526Z,48.76
2019-04-05T06:45:50.604Z,49.01
2019-04-05T06:48:19.512Z,49.05
2019-04-05T06:50:47.255Z,49.01
2019-04-05T06:53:13.892Z,48.12
2019-04-05T06:55:41.754Z,48.80
2019-04-05T06:58:10.347Z,47.84
2019-04-05T07:00:36.836Z,48.57
2019-04-05T07:03:04.004Z,47.83
2019-04-05T07:05:30.731Z,48.57
2019-04-05T07:07:57.642Z,48.27
2019-04-05T07:10:24.229Z,48.28
2019-04-05T07:12:50.861Z,47.98
2019-04-05T07:15:17.619Z,47.67
2019-04-05T07:17:44.489Z,47.51
2019-04-05T07:20:11.090Z,47.18
2019-04-05T07:22:39.522Z,48.03
2019-04-05T07:27:53.238Z,47.90
2019-04-05T07:30:20.886Z,49.71
2019-04-05T07:32:47.681Z,50.67
2019-04-05T07:35:15.236Z,52.71
2019-04-05T07:37:42.924Z,52.82
2019-04-05T07:40:10.561Z,52.22
2019-04-05T07:42:37.669Z,52.20
2019-04-05T07:45:04.611Z,52.55
2019-04-05T07:47:32.618Z,53.57
2019-04-05T07:49:59.696Z,52.83
2019-04-05T07:52:27.916Z,52.73
2019-04-05T07:54:54.790Z,52.85
2019-04-05T07:57:21.841Z,53.54
2019-04-05T07:59:48.465Z,54.47
2019-04-05T08:02:16.169Z,54.07
2019-04-05T08:04:42.973Z,53.82
2019-04-05T08:07:10.675Z,54.26
2019-04-05T08:09:38.326Z,53.49
2019-04-05T08:12:05.469Z,53.72
2019-04-05T08:14:33.085Z,54.09
2019-04-05T08:16:59.789Z,54.87
2019-04-05T08:21:59.099Z,53.58
2019-04-05T08:24:27.192Z,54.62
2019-04-05T08:26:54.321Z,54.33
2019-04-05T08:29:24.979Z,54.71
2019-04-05T08:31:53.321Z,55.48
2019-04-05T08:34:20.643Z,55.12
2019-04-05T08:36:48.629Z,53.75
2019-04-05T08:39:16.268Z,53.48
2019-04-05T08:41:44.163Z,52.65
2019-04-05T08:44:31.399Z,53.28
2019-04-05T08:46:58.551Z,52.44
2019-04-05T08:49:26.172Z,51.61
2019-04-05T08:51:53.380Z,52.98
2019-04-05T08:54:32.040Z,52.93
2019-04-05T08:56:49.380Z,52.76
2019-04-05T08:59:17.106Z,52.97
2019-04-05T09:01:44.339Z,53.52
2019-04-05T09:04:11.446Z,53.50
2019-04-05T09:06:39.222Z,52.96
2019-04-05T09:09:07.110Z,51.32
2019-04-05T09:11:35.229Z,52.72
2019-04-05T09:14:03.154Z,51.97
2019-04-05T09:16:29.865Z,53.12
2019-04-05T09:18:57.565Z,52.08
2019-04-05T09:21:24.292Z,52.46
2019-04-05T09:23:59.304Z,52.80
2019-04-05T09:26:26.647Z,53.63
2019-04-05T09:28:57.303Z,53.07
2019-04-05T09:31:25.343Z,53.87
2019-04-05T09:34:11.784Z,53.14
2019-04-05T09:36:38.787Z,51.54
2019-04-05T09:39:14.961Z,52.51
2019-04-05T09:41:39.464Z,52.29
2019-04-05T09:44:10.689Z,52.45
2019-04-05T09:46:46.912Z,53.11
2019-04-05T09:49:07.729Z,52.87
2019-04-05T09:51:42.845Z,52.15
2019-04-05T09:57:11.291Z,51.60
2019-04-05T09:59:42.807Z,51.47
2019-04-05T10:02:12.109Z,52.15
2019-04-05T10:04:40.510Z,51.70
2019-04-05T10:07:12.424Z,51.42
2019-04-05T10:09:43.734Z,51.04
2019-04-05T10:12:11.431Z,50.62
2019-04-05T10:14:42.884Z,50.28
2019-04-05T10:17:12.921Z,50.33
2019-04-05T10:19:49.802Z,49.86
2019-04-05T10:22:09.775Z,50.02
2019-04-05T10:24:40.333Z,50.85
2019-04-05T10:27:10.009Z,50.25
2019-04-05T10:29:41.024Z,49.89
2019-04-05T10:32:10.333Z,51.31
2019-04-05T10:34:39.990Z,50.62
2019-04-05T10:37:07.848Z,52.26
2019-04-05T10:39:47.277Z,53.20
2019-04-05T10:42:18.625Z,51.69
2019-04-05T10:44:56.143Z,52.80
2019-04-05T10:47:25.561Z,54.15
2019-04-05T10:50:03.072Z,53.40
2019-04-05T10:52:25.289Z,54.70
2019-04-05T10:54:53.626Z,54.56
2019-04-05T10:57:24.255Z,55.82
2019-04-05T10:59:51.734Z,56.32
2019-04-05T11:02:19.341Z,55.86
2019-04-05T11:04:47.163Z,55.84
2019-04-05T11:07:16.716Z,57.05
2019-04-05T11:09:44.367Z,57.69
2019-04-05T11:12:16.185Z,58.10
2019-04-05T11:14:50.749Z,58.45
2019-04-05T11:17:17.168Z,58.63
2019-04-05T11:19:50.217Z,59.05
2019-04-05T11:22:20.953Z,59.00
2019-04-05T11:27:33.808Z,59.83
2019-04-05T11:30:01.571Z,60.04
2019-04-05T11:32:29.234Z,59.22
2019-04-05T11:34:56.257Z,58.96
2019-04-05T11:37:22.991Z,58.53
2019-04-05T11:39:51.561Z,58.21
2019-04-05T11:42:19.394Z,58.88
2019-04-05T11:44:47.031Z,59.05
2019-04-05T11:47:13.637Z,59.62
2019-04-05T11:49:40.738Z,60.00
2019-04-05T11:52:07.685Z,60.05
2019-04-05T11:54:35.563Z,60.17
2019-04-05T11:57:03.359Z,60.22
2019-04-05T11:59:31.305Z,59.43
2019-04-05T12:01:58.920Z,59.29
2019-04-05T12:04:25.652Z,58.69
2019-04-05T12:06:52.609Z,59.28
2019-04-05T12:09:19.309Z,58.82
2019-04-05T12:11:46.437Z,59.71
2019-04-05T12:14:13.383Z,58.43
2019-04-05T12:16:39.967Z,58.53
2019-04-05T12:19:06.732Z,58.47
2019-04-05T12:21:34.797Z,57.56
2019-04-05T12:24:02.646Z,57.90
2019-04-05T12:26:30.085Z,58.82
2019-04-05T12:28:56.668Z,58.14
2019-04-05T12:31:23.387Z,58.09
2019-04-05T12:33:52.224Z,57.91
2019-04-05T12:36:22.024Z,58.88
2019-04-05T12:38:47.291Z,58.78
2019-04-05T12:41:14.369Z,58.55
2019-04-05T12:43:43.796Z,58.85
2019-04-05T12:46:10.120Z,58.81
2019-04-05T12:48:37.247Z,58.30
2019-04-05T12:51:05.429Z,59.18
2019-04-05T12:53:33.497Z,59.21
2019-04-05T12:56:01.454Z,60.10
2019-04-05T12:58:29.111Z,59.35
2019-04-05T13:00:57.048Z,59.80
2019-04-05T13:03:24.735Z,59.94
2019-04-05T13:05:52.343Z,59.79
2019-04-05T13:08:20.883Z,60.07
2019-04-05T13:10:48.827Z,60.30
2019-04-05T13:13:15.619Z,60.28
2019-04-05T13:15:43.492Z,61.13
2019-04-05T13:18:10.127Z,61.77
2019-04-05T13:20:38.532Z,62.71
2019-04-05T13:23:06.841Z,62.48
2019-04-05T13:25:35.666Z,62.87
2019-04-05T13:28:12.739Z,62.13
2019-04-05T13:30:30.575Z,62.48
2019-04-05T13:32:57.287Z,62.62
2019-04-05T13:35:24.171Z,61.54
2019-04-05T13:37:50.795Z,62.84
2019-04-05T13:40:17.718Z,63.60
2019-04-05T13:42:45.322Z,63.15
2019-04-05T13:45:12.192Z,62.87
2019-04-05T13:47:39.226Z,63.42
2019-04-05T13:50:10.869Z,62.19
2019-04-05T13:52:36.513Z,62.33
2019-04-05T13:55:03.283Z,62.16
2019-04-05T13:57:30.217Z,62.69
2019-04-05T13:59:56.783Z,62.15
2019-04-05T14:02:23.726Z,62.21
2019-04-05T14:04:53.470Z,61.62
2019-04-05T14:07:19.376Z,60.14
2019-04-05T14:09:45.957Z,59.84
2019-04-05T14:12:12.904Z,60.98
2019-04-05T14:14:41.526Z,61.72
2019-04-05T14:17:08.277Z,61.92
2019-04-05T14:19:35.089Z,61.86
2019-04-05T14:22:08.215Z,62.14
2019-04-05T14:24:30.899Z,60.92
2019-04-05T14:26:57.522Z,61.52
2019-04-05T14:29:24.138Z,61.78
2019-04-05T14:31:51.679Z,60.59
2019-04-05T14:34:18.292Z,61.12
2019-04-05T14:36:45.304Z,60.13
2019-04-05T14:39:12.054Z,60.86
2019-04-05T14:41:38.919Z,61.75
2019-04-05T14:44:06.645Z,61.44
2019-04-05T14:46:33.622Z,62.17
2019-04-05T14:49:01.357Z,62.75
2019-04-05T14:51:28.650Z,63.05
2019-04-05T14:53:56.534Z,62.94
2019-04-05T14:56:24.135Z,62.44
2019-04-05T14:58:50.727Z,63.09
2019-04-05T15:01:18.065Z,64.04
2019-04-05T15:03:45.963Z,63.68
2019-04-05T15:06:12.815Z,63.30
2019-04-05T15:08:40.039Z,62.95
2019-04-05T15:11:06.860Z,62.60
2019-04-05T15:13:34.150Z,61.98
2019-04-05T15:16:01.178Z,61.80
2019-04-05T15:18:27.803Z,61.64
2019-04-05T15:20:54.484Z,61.36
2019-04-05T15:23:21.095Z,60.71
2019-04-05T15:25:49.849Z,60.74
2019-04-05T15:28:16.148Z,60.72
2019-04-05T15:30:43.072Z,60.89
2019-04-05T15:33:09.847Z,60.95
2019-04-05T15:35:37.100Z,60.34
2019-04-05T15:40:48.458Z,60.14
2019-04-05T15:43:15.087Z,60.27
2019-04-05T15:45:42.821Z,59.91
2019-04-05T15:48:09.760Z,59.52
2019-04-05T15:50:36.571Z,59.48
2019-04-05T15:53:03.384Z,59.85
2019-04-05T15:55:33.412Z,59.62
2019-04-05T15:57:58.743Z,61.19
2019-04-05T16:00:26.417Z,62.38
2019-04-05T16:02:54.182Z,61.94
2019-04-05T16:05:21.211Z,62.58
2019-04-05T16:07:49.102Z,62.29
2019-04-05T16:10:16.981Z,62.89
2019-04-05T16:12:44.600Z,62.75
2019-04-05T16:15:12.211Z,62.42
2019-04-05T16:17:40.106Z,62.20
2019-04-05T16:20:07.445Z,61.26
2019-04-05T16:22:35.956Z,60.87
2019-04-05T16:25:03.842Z,60.15
2019-04-05T16:27:31.064Z,60.95
2019-04-05T16:29:58.671Z,61.58
2019-04-05T16:32:26.672Z,61.08
2019-04-05T16:34:53.965Z,59.91
2019-04-05T16:37:21.879Z,59.54
2019-04-05T16:39:48.990Z,59.61
2019-04-05T16:42:16.080Z,60.08
2019-04-05T16:44:43.010Z,60.83
2019-04-05T16:47:10.663Z,60.71
2019-04-05T16:49:37.488Z,61.15
2019-04-05T16:52:05.097Z,60.82
2019-04-05T16:54:31.689Z,60.85
2019-04-05T16:56:58.703Z,61.75
2019-04-05T16:59:26.656Z,61.38
2019-04-05T17:01:56.716Z,61.85
2019-04-05T17:04:22.805Z,62.07
2019-04-05T17:06:50.964Z,61.83
2019-04-05T17:09:18.887Z,62.08
2019-04-05T17:14:31.101Z,61.83
2019-04-05T17:16:58.642Z,61.42
2019-04-05T17:19:26.333Z,61.46
2019-04-05T17:21:57.255Z,61.51
2019-04-05T17:26:56.363Z,61.62
2019-04-05T17:29:23.107Z,61.86
2019-04-05T17:31:51.926Z,61.72
2019-04-05T17:34:19.373Z,61.35
2019-04-05T17:36:47.161Z,61.26
2019-04-05T17:39:20.179Z,61.58
2019-04-05T17:41:45.385Z,61.72
2019-04-05T17:44:29.887Z,61.83
2019-04-05T17:46:58.405Z,61.67
2019-04-05T17:49:26.149Z,61.75
2019-04-05T17:51:55.890Z,61.80
2019-04-05T17:54:30.864Z,62.35
2019-04-05T17:56:53.501Z,62.38
2019-04-05T17:59:21.826Z,62.79
2019-04-05T18:01:54.805Z,62.76
2019-04-05T18:04:21.554Z,62.75
2019-04-05T18:09:37.053Z,62.60
2019-04-05T18:12:11.601Z,62.45
2019-04-05T18:17:23.925Z,61.97
2019-04-05T18:19:51.534Z,62.07
2019-04-05T18:22:20.981Z,62.31
2019-04-05T18:24:51.130Z,62.35
2019-04-05T18:27:21.018Z,62.80
2019-04-05T18:29:50.078Z,63.07
2019-04-05T18:32:19.671Z,63.08
2019-04-05T18:34:47.524Z,62.66
2019-04-05T18:37:18.971Z,62.40
2019-04-05T18:39:46.188Z,62.25
2019-04-05T18:42:17.144Z,62.26
2019-04-05T18:44:48.450Z,62.19
2019-04-05T18:47:15.557Z,62.26
2019-04-05T18:49:43.160Z,62.17
2019-04-05T18:52:11.021Z,62.26
2019-04-05T18:54:39.403Z,62.43
2019-04-05T18:57:07.219Z,62.38
2019-04-05T18:59:35.103Z,62.50
2019-04-05T19:02:04.052Z,62.37
2019-04-05T19:04:35.112Z,62.74
2019-04-05T19:07:12.410Z,62.87
2019-04-05T19:09:40.026Z,63.27
2019-04-05T19:12:07.969Z,63.51
2019-04-05T19:14:35.625Z,63.86
2019-04-05T19:17:02.245Z,63.57
2019-04-05T19:19:29.908Z,63.00
2019-04-05T19:21:57.275Z,63.19
2019-04-05T19:26:56.447Z,62.26
2019-04-05T19:29:23.595Z,62.72
2019-04-05T19:49:35.884Z,63.03
2019-04-05T19:52:04.044Z,62.57
2019-04-05T19:54:32.424Z,63.63
2019-04-05T19:57:00.196Z,63.99
2019-04-05T19:59:27.419Z,64.60
2019-04-05T20:01:58.447Z,64.09
2019-04-05T20:04:23.404Z,64.01
2019-04-05T20:06:58.037Z,64.76
2019-04-05T20:09:18.643Z,64.58
2019-04-05T20:11:45.310Z,65.86
2019-04-05T20:14:12.335Z,65.12
2019-04-05T20:16:39.024Z,64.41
2019-04-05T20:19:05.684Z,65.05
2019-04-05T20:21:32.763Z,64.98
2019-04-05T20:23:59.380Z,64.43
2019-04-05T20:26:26.236Z,64.47
2019-04-05T20:28:52.862Z,64.83
2019-04-05T20:31:19.450Z,65.13
2019-04-05T20:33:46.049Z,65.06
2019-04-05T20:36:13.144Z,64.51
2019-04-05T20:38:39.770Z,64.49
2019-04-05T20:41:06.670Z,63.62
2019-04-05T20:43:33.298Z,63.45
2019-04-05T20:46:01.605Z,64.51
2019-04-05T20:48:28.459Z,64.42
2019-04-05T20:50:55.365Z,63.65
2019-04-05T20:53:22.234Z,63.54
2019-04-05T20:55:48.869Z,64.05
2019-04-05T20:58:15.770Z,63.64
2019-04-05T21:00:42.699Z,63.01
2019-04-05T21:03:10.973Z,63.39
2019-04-05T21:05:37.637Z,63.23
2019-04-05T21:08:04.235Z,62.99
2019-04-05T21:10:30.881Z,63.58
2019-04-05T21:12:57.983Z,63.16
2019-04-05T21:15:24.673Z,62.37
2019-04-05T21:17:51.373Z,62.46
2019-04-05T21:20:19.351Z,63.14
2019-04-05T21:22:49.007Z,63.18
2019-04-05T21:28:00.981Z,62.41
2019-04-05T21:30:27.907Z,62.09
2019-04-05T21:32:54.525Z,61.69
2019-04-05T21:35:21.141Z,61.91
2019-04-05T21:37:47.702Z,61.52
2019-04-05T21:40:14.590Z,61.54
2019-04-05T21:42:41.193Z,61.46
2019-04-05T21:45:07.818Z,61.34
2019-04-05T21:47:34.381Z,61.76
2019-04-05T21:50:01.214Z,60.95
2019-04-05T21:52:27.935Z,61.25
2019-04-05T21:54:54.533Z,61.79
2019-04-05T21:57:21.410Z,61.71
2019-04-05T21:59:48.008Z,61.11
2019-04-05T22:02:14.590Z,60.92
2019-04-05T22:04:41.582Z,61.97
2019-04-05T22:07:08.330Z,62.30
2019-04-05T22:09:34.943Z,62.57
2019-04-05T22:12:01.549Z,62.47
2019-04-05T22:14:28.382Z,62.42
2019-04-05T22:16:55.280Z,62.55
2019-04-05T22:19:21.988Z,62.40
2019-04-05T22:21:48.575Z,62.11
2019-04-05T22:24:15.823Z,62.04
2019-04-05T22:26:42.552Z,61.88
2019-04-05T22:29:09.464Z,61.95
2019-04-05T22:31:36.045Z,61.53
2019-04-05T22:34:02.950Z,62.15
2019-04-05T22:36:29.833Z,62.24
2019-04-05T22:38:56.502Z,62.26
2019-04-05T22:41:23.228Z,61.89
2019-04-05T22:43:50.058Z,62.42
2019-04-05T22:46:17.342Z,62.42
2019-04-05T22:48:43.943Z,62.14
2019-04-05T22:51:11.225Z,61.97
2019-04-05T22:53:37.984Z,61.20
2019-04-05T22:56:04.584Z,61.66
2019-04-05T22:58:31.296Z,61.82
2019-04-05T23:00:57.874Z,61.61
2019-04-05T23:03:25.032Z,61.97
2019-04-05T23:05:51.614Z,62.71
2019-04-05T23:08:18.200Z,62.98
2019-04-05T23:10:48.554Z,63.07
2019-04-05T23:13:15.147Z,63.35
2019-04-05T23:15:41.856Z,63.04
2019-04-05T23:18:08.942Z,62.86
2019-04-05T23:20:35.529Z,62.80
2019-04-05T23:23:02.430Z,63.70
2019-04-05T23:25:31.420Z,64.00
2019-04-05T23:27:58.015Z,63.70
2019-04-05T23:30:25.033Z,63.44
2019-04-05T23:32:51.976Z,63.71
2019-04-05T23:35:19.763Z,63.77
2019-04-05T23:37:46.612Z,63.35
2019-04-05T23:40:13.252Z,63.69
2019-04-05T23:42:40.216Z,64.08
2019-04-05T23:45:07.064Z,64.52
2019-04-05T23:47:34.077Z,64.16
2019-04-05T23:50:01.112Z,63.99
2019-04-05T23:52:28.058Z,63.67
2019-04-05T23:54:54.898Z,63.55
2019-04-05T23:57:21.762Z,62.87
2019-04-05T23:59:48.390Z,63.01
